Bei Facebook empfehlenBei Twitter postenGoogle plusPinterest

Das Wetter im Erzgebirge am 16.07.2016

Wetter und Klima am 16.07.2016 Holzhau im Erzgebirge (630m ü.NN)
Letzte gemessene Temperatur und Uhrzeit der Messung23:45:00 Uhr13.30 °C
Temperatur (Maximum / Höchstwert) und Uhrzeit der Messung17:00:00 Uhr22.20 °C
Temperatur (Minimum / Tiefstwert) und Uhrzeit der Messung04:45:004.10 °C
Errechneter Absolutwert der Temperaturschwankungen zwischen Tmin und Tmax des Tages18.10 K
Errechnete Tagesmitteltemperatur13.97292 °C
Gesamt - Niederschlag des Tages (in flüssiger Form)0.00 Liter / m²
Luftdruck (Maximum / Höchstwert) und Zeitpunkt der Messung00:30:00 Uhr1022.80 hPa
Luftdruck (Minimum / Tiefstwert) und Zeitpunkt der Messung20:45:00 Uhr1020.20 hPa
Errechneter Absolutwert der Luftdruckschwankungen des Tages2.60 hPa
Höchste gemessene Windgeschwindigkeit und Uhrzeit der Messung23:45:00 Uhr0.00 km/h
Errechnete Windhäufigkeit in Relation zu den Messwerten des Tages0.00000 %
Niedrigste Windkühle (Windchill) und Zeitpunkt der Messung04:45:00 Uhr4.10 °C
Taupunkt (Maximum / Höchstwert) und Uhrzeit der Messung08:45:00 Uhr14.30 °C
Taupunkt (Minimum / Tiefstwert) und Uhrzeit der Messung04:45:003.20 °C
Anzahl der automatisch eingelesenen Messwerte 96

Detaillierte Wetter- und Klima- Messwerte für den 16.07.2016 in Holzhau im Erzgebirge (630m ü.NN)
ZeitTemperaturLuftdruckRel. LuftfeuchteWindWindrichtungWindchillTaupunktNiederschlag l/m²
23:45:0013.30 °C1020.40 hPa82.00 %10.30 °C 
23:30:0013.30 °C1020.40 hPa81.00 %10.10 °C 
23:15:0013.40 °C1020.50 hPa80.00 %10.00 °C 
23:00:0013.40 °C1020.40 hPa80.00 %10.00 °C 
22:45:0013.60 °C1020.50 hPa79.00 %10.00 °C 
22:30:0013.80 °C1020.30 hPa78.00 %10.00 °C 
22:15:0013.90 °C1020.40 hPa77.00 %9.90 °C 
22:00:0013.90 °C1020.60 hPa76.00 %9.70 °C 
21:45:0014.10 °C1020.60 hPa75.00 %9.70 °C 
21:30:0014.30 °C1020.60 hPa74.00 %9.70 °C 
21:15:0014.60 °C1020.50 hPa73.00 %9.80 °C 
21:00:0014.90 °C1020.40 hPa71.00 %9.70 °C 
20:45:0015.20 °C1020.20 hPa69.00 %9.60 °C 
20:30:0015.60 °C1020.40 hPa67.00 %9.50 °C 
20:15:0016.20 °C1020.30 hPa65.00 %9.60 °C 
20:00:0017.30 °C1020.30 hPa60.00 %9.50 °C 
19:45:0018.20 °C1020.30 hPa57.00 %9.50 °C 
19:30:0019.10 °C1020.30 hPa55.00 %9.90 °C 
19:15:0019.60 °C1020.30 hPa54.00 %10.00 °C 
19:00:0019.80 °C1020.30 hPa55.00 %10.50 °C 
18:45:0019.80 °C1020.20 hPa55.00 %10.50 °C 
18:30:0020.10 °C1020.20 hPa54.00 %10.50 °C 
18:15:0020.60 °C1020.40 hPa54.00 %11.00 °C 
18:00:0020.80 °C1020.40 hPa53.00 %10.90 °C 
17:45:0020.60 °C1020.40 hPa53.00 %10.70 °C 
17:30:0021.10 °C1020.60 hPa52.00 %10.90 °C 
17:15:0021.80 °C1020.50 hPa52.00 %11.50 °C 
17:00:0022.20 °C1020.70 hPa51.00 %11.60 °C 
16:45:0022.10 °C1020.70 hPa52.00 %11.80 °C 
16:30:0021.90 °C1020.60 hPa52.00 %11.60 °C 
16:15:0021.80 °C1020.80 hPa53.00 %11.80 °C 
16:00:0021.20 °C1020.70 hPa54.00 %11.50 °C 
15:45:0021.40 °C1020.70 hPa55.00 %12.00 °C 
15:30:0021.00 °C1021.00 hPa54.00 %11.30 °C 
15:15:0020.90 °C1020.80 hPa56.00 %11.80 °C 
15:00:0020.30 °C1020.80 hPa59.00 %12.00 °C 
14:45:0020.30 °C1021.00 hPa57.00 %11.50 °C 
14:30:0021.10 °C1021.20 hPa57.00 %12.30 °C 
14:15:0020.90 °C1021.20 hPa58.00 %12.30 °C 
14:00:0020.90 °C1021.60 hPa56.00 %11.80 °C 
13:45:0020.70 °C1021.60 hPa59.00 %12.40 °C 
13:30:0020.50 °C1021.50 hPa59.00 %12.20 °C 
13:15:0020.50 °C1021.50 hPa62.00 %13.00 °C 
13:00:0019.80 °C1021.80 hPa63.00 %12.60 °C 
12:45:0018.80 °C1021.80 hPa63.00 %11.60 °C 
12:30:0018.90 °C1021.70 hPa63.00 %11.70 °C 
12:15:0018.20 °C1021.90 hPa67.00 %12.00 °C 
12:00:0017.50 °C1022.00 hPa68.00 %11.50 °C 
11:45:0017.50 °C1022.10 hPa68.00 %11.50 °C 
11:30:0017.00 °C1022.10 hPa72.00 %11.90 °C 
11:15:0016.60 °C1022.20 hPa73.00 %11.70 °C 
11:00:0016.90 °C1022.50 hPa72.00 %11.80 °C 
10:45:0016.90 °C1022.30 hPa72.00 %11.80 °C 
10:30:0016.30 °C1022.30 hPa74.00 %11.70 °C 
10:15:0016.60 °C1022.20 hPa75.00 %12.20 °C 
10:00:0016.80 °C1022.20 hPa76.00 %12.50 °C 
09:45:0016.40 °C1022.10 hPa77.00 %12.40 °C 
09:30:0016.60 °C1022.10 hPa81.00 %13.30 °C 
09:15:0016.40 °C1022.10 hPa83.00 %13.50 °C 
09:00:0016.30 °C1021.90 hPa86.00 %14.00 °C 
08:45:0015.80 °C1022.10 hPa91.00 %14.30 °C 
08:30:0014.40 °C1022.00 hPa92.00 %13.10 °C 
08:15:0013.60 °C1021.90 hPa93.00 %12.50 °C 
08:00:0012.90 °C1022.10 hPa95.00 %12.10 °C 
07:45:0011.80 °C1022.30 hPa95.00 %11.00 °C 
07:30:009.90 °C1022.20 hPa95.00 %9.10 °C 
07:15:007.20 °C1022.20 hPa95.00 %6.50 °C 
07:00:005.50 °C1022.20 hPa95.00 %4.80 °C 
06:45:005.10 °C1022.40 hPa94.00 %4.20 °C 
06:30:004.80 °C1022.30 hPa94.00 %3.90 °C 
06:15:004.60 °C1022.40 hPa94.00 %3.70 °C 
06:00:004.60 °C1022.40 hPa94.00 %3.70 °C 
05:45:004.80 °C1022.30 hPa94.00 %3.90 °C 
05:30:004.80 °C1022.50 hPa94.00 %3.90 °C 
05:15:004.60 °C1022.40 hPa94.00 %3.70 °C 
05:00:004.40 °C1022.50 hPa94.00 %3.50 °C 
04:45:004.10 °C1022.70 hPa94.00 %3.20 °C 
04:30:004.40 °C1022.70 hPa93.00 %3.40 °C 
04:15:004.60 °C1022.50 hPa93.00 %3.60 °C 
04:00:004.60 °C1022.40 hPa93.00 %3.60 °C 
03:45:004.90 °C1022.50 hPa93.00 %3.90 °C 
03:30:005.10 °C1022.30 hPa93.00 %4.10 °C 
03:15:005.30 °C1022.20 hPa93.00 %4.30 °C 
03:00:005.60 °C1022.20 hPa93.00 %4.60 °C 
02:45:005.80 °C1022.30 hPa93.00 %4.80 °C 
02:30:006.10 °C1022.20 hPa93.00 %5.10 °C 
02:15:006.60 °C1022.20 hPa93.00 %5.60 °C 
02:00:006.90 °C1022.20 hPa93.00 %5.80 °C 
01:45:007.30 °C1022.40 hPa93.00 %6.20 °C 
01:30:007.90 °C1022.50 hPa93.00 %6.80 °C 
01:15:008.20 °C1022.60 hPa93.00 %7.10 °C 
01:00:008.40 °C1022.50 hPa93.00 %7.30 °C 
00:45:008.40 °C1022.70 hPa93.00 %7.30 °C 
00:30:008.40 °C1022.80 hPa93.00 %7.30 °C 
00:15:008.40 °C1022.80 hPa93.00 %7.30 °C 
00:00:008.10 °C1022.50 hPa92.00 %6.90 °C 

Permanenter Link zu dieser Seite: Wetter im Erzgebirge am 16.07.2016
Performance-Info: Die Erstellung der Seite / Statistik(en) / Tabelle(n) erforderte 5 Datenbankserver-Abfrage(n) und dauerte 103 Millisekunden. (Dieser Messwert ist von der Gesamt-Auslastung des Servers abhängig.)
Erzgebirge - Wetter | Erzgebirge - Wetter (Mobilgeräte) | Komplette Klimadatenbank